Time;durP1;ratioP1;P1;durP2;ratioP2;P2;SDS_P1;SDS_P2;PMS_P1;PMS_P2;Temp;Humidity;BMP_temperature;BMP_pressure;BME280_temperature;BME280_humidity;BME280_pressure;Samples;Min_cycle;Max_cycle;Signal;HPM_P1;HPM_P2
2022/05/21 00:00:45;;;;;;;1.30;0.93;;;13.10;99.90;;;;;;5013031;28;20434;-70
2022/05/21 00:03:11;;;;;;;1.00;0.87;;;13.10;99.90;;;;;;5013002;28;20407;-70
2022/05/21 00:05:38;;;;;;;2.30;1.77;;;13.10;99.90;;;;;;5013024;28;20520;-70
2022/05/21 00:08:05;;;;;;;2.27;1.57;;;13.00;99.90;;;;;;5013091;28;20399;-71
2022/05/21 00:10:32;;;;;;;0.83;0.70;;;13.00;99.90;;;;;;5012959;28;20419;-70
2022/05/21 00:12:59;;;;;;;1.40;0.83;;;13.00;99.90;;;;;;5012793;28;20403;-70
2022/05/21 00:15:27;;;;;;;3.57;1.77;;;13.00;99.90;;;;;;5012870;28;20415;-71
2022/05/21 00:17:53;;;;;;;1.67;1.17;;;13.00;99.90;;;;;;5012848;28;20967;-70
2022/05/21 00:23:16;;;;;;;1.23;0.87;;;13.00;99.90;;;;;;5012889;28;20255;-71
2022/05/21 00:25:43;;;;;;;0.80;0.60;;;12.90;99.90;;;;;;5012715;28;20493;-70
2022/05/21 00:28:08;;;;;;;1.47;1.10;;;12.90;99.90;;;;;;5012843;28;20403;-71
2022/05/21 00:30:35;;;;;;;3.77;1.27;;;12.80;99.90;;;;;;5012579;28;20855;-71
2022/05/21 00:33:01;;;;;;;0.80;0.60;;;12.80;99.90;;;;;;5012420;28;20171;-71
2022/05/21 00:35:27;;;;;;;1.20;0.90;;;12.80;99.90;;;;;;5012651;28;20495;-71
2022/05/21 00:37:52;;;;;;;0.90;0.70;;;12.70;99.90;;;;;;5012590;28;20873;-70
2022/05/21 00:40:18;;;;;;;3.30;1.10;;;12.70;99.90;;;;;;5012445;28;20246;-70
2022/05/21 00:42:46;;;;;;;2.50;0.73;;;12.70;99.90;;;;;;5012144;28;20195;-70
2022/05/21 00:45:14;;;;;;;0.90;0.70;;;12.60;99.90;;;;;;5012123;28;20204;-69
2022/05/21 00:47:40;;;;;;;0.80;0.63;;;12.60;99.90;;;;;;5012477;28;20435;-71
2022/05/21 00:50:08;;;;;;;0.90;0.67;;;12.60;99.90;;;;;;5012334;28;20419;-70
2022/05/21 00:52:36;;;;;;;1.30;1.03;;;12.60;99.90;;;;;;5012127;28;20172;-71
2022/05/21 00:55:07;;;;;;;1.43;1.27;;;12.60;99.90;;;;;;5012293;28;20465;-70
2022/05/21 00:57:36;;;;;;;0.80;0.60;;;12.50;99.90;;;;;;5012209;28;20415;-71
2022/05/21 01:00:17;;;;;;;0.90;0.70;;;12.50;99.90;;;;;;5012185;28;20419;-69
2022/05/21 01:02:47;;;;;;;1.23;0.70;;;12.50;99.90;;;;;;5012024;28;20414;-71
2022/05/21 01:05:17;;;;;;;0.80;0.70;;;12.50;99.90;;;;;;5012123;28;20439;-70
2022/05/21 01:07:45;;;;;;;1.50;1.20;;;12.40;99.90;;;;;;5012317;28;20903;-70
2022/05/21 01:10:14;;;;;;;2.27;1.83;;;12.40;99.90;;;;;;5012205;28;20954;-69
2022/05/21 01:12:47;;;;;;;0.80;0.77;;;12.40;99.90;;;;;;5011948;28;20487;-70
2022/05/21 01:15:17;;;;;;;1.03;0.93;;;12.40;99.90;;;;;;5012145;28;20418;-69
2022/05/21 01:17:43;;;;;;;0.80;0.67;;;12.30;99.90;;;;;;5012094;28;20423;-71
2022/05/21 01:20:13;;;;;;;0.70;0.50;;;12.30;99.90;;;;;;5012014;28;20426;-70
2022/05/21 01:22:44;;;;;;;2.23;0.90;;;12.30;99.90;;;;;;5011928;28;20403;-69
2022/05/21 01:25:11;;;;;;;1.20;1.10;;;12.30;99.90;;;;;;5012019;28;20454;-71
2022/05/21 01:27:37;;;;;;;0.90;0.70;;;12.20;99.90;;;;;;5012043;28;20435;-70
2022/05/21 01:30:05;;;;;;;8.50;1.77;;;12.20;99.90;;;;;;5010628;28;20423;-70
2022/05/21 01:32:31;;;;;;;1.00;0.90;;;12.20;99.90;;;;;;5011683;28;20410;-71
2022/05/21 01:34:56;;;;;;;1.77;1.57;;;12.20;99.90;;;;;;5011956;28;20407;-71
2022/05/21 01:37:22;;;;;;;8.70;1.67;;;12.20;99.90;;;;;;5012000;28;20168;-70
2022/05/21 01:39:48;;;;;;;1.83;0.87;;;12.20;99.90;;;;;;5012061;28;20188;-70
2022/05/21 01:42:14;;;;;;;1.53;1.43;;;12.20;99.90;;;;;;5011668;28;20434;-70
2022/05/21 01:44:40;;;;;;;3.43;2.23;;;12.10;99.90;;;;;;5011748;28;20562;-69
2022/05/21 01:47:11;;;;;;;1.10;1.00;;;12.20;99.90;;;;;;5012070;28;20207;-70
2022/05/21 01:49:38;;;;;;;1.13;1.03;;;12.10;99.90;;;;;;5011888;28;20827;-70
2022/05/21 01:52:05;;;;;;;1.00;0.90;;;12.10;99.90;;;;;;5011813;28;20400;-69
2022/05/21 01:54:32;;;;;;;2.27;1.10;;;12.10;99.90;;;;;;5011888;28;20431;-71
2022/05/21 01:56:58;;;;;;;0.80;0.77;;;12.10;99.90;;;;;;5014532;28;20550;-70
2022/05/21 01:59:24;;;;;;;0.90;0.60;;;12.10;99.90;;;;;;5014060;28;20489;-71
2022/05/21 02:01:50;;;;;;;1.97;1.67;;;12.10;99.90;;;;;;5015371;28;20403;-70
2022/05/21 02:04:17;;;;;;;2.40;2.20;;;12.10;99.90;;;;;;5015090;28;20415;-71
2022/05/21 02:06:43;;;;;;;1.13;1.03;;;12.10;99.90;;;;;;5015363;28;20168;-70
2022/05/21 02:09:10;;;;;;;1.43;0.80;;;12.10;99.90;;;;;;5013892;28;20434;-70
2022/05/21 02:11:36;;;;;;;0.80;0.53;;;12.10;99.90;;;;;;5015242;28;20176;-70
2022/05/21 02:14:01;;;;;;;2.17;1.13;;;12.10;99.90;;;;;;5014807;28;20407;-70
2022/05/21 02:16:28;;;;;;;0.87;0.70;;;12.10;99.90;;;;;;5015168;28;20399;-70
2022/05/21 02:18:54;;;;;;;1.37;0.97;;;12.10;99.90;;;;;;5014949;28;20259;-70
2022/05/21 02:21:20;;;;;;;0.77;0.67;;;12.10;99.90;;;;;;5015172;28;20434;-69
2022/05/21 02:23:47;;;;;;;1.10;0.93;;;12.10;99.90;;;;;;5014683;28;20514;-71
2022/05/21 02:26:12;;;;;;;0.70;0.50;;;12.20;99.90;;;;;;5014967;28;20323;-70
2022/05/21 02:28:38;;;;;;;1.30;0.70;;;12.20;99.90;;;;;;5014891;28;20896;-71
2022/05/21 02:31:03;;;;;;;0.80;0.70;;;12.30;99.90;;;;;;5014852;28;20234;-70
2022/05/21 02:33:30;;;;;;;1.10;1.00;;;12.30;99.90;;;;;;5014561;28;20601;-71
2022/05/21 02:35:56;;;;;;;1.10;1.00;;;12.30;99.90;;;;;;5014823;28;20164;-70
2022/05/21 02:41:10;;;;;;;0.70;0.50;;;12.20;99.90;;;;;;5015070;28;20175;-70
2022/05/21 02:43:36;;;;;;;0.70;0.50;;;12.20;99.90;;;;;;5014375;28;20403;-71
2022/05/21 02:46:02;;;;;;;1.53;0.70;;;12.20;99.90;;;;;;5014526;28;20458;-70
2022/05/21 02:48:29;;;;;;;0.70;0.50;;;12.20;99.90;;;;;;5013232;28;20255;-70
2022/05/21 02:50:55;;;;;;;0.70;0.50;;;12.20;99.90;;;;;;5014577;28;20403;-70
2022/05/21 02:53:20;;;;;;;0.70;0.60;;;12.10;99.90;;;;;;5014251;28;20406;-71
2022/05/21 02:55:46;;;;;;;0.70;0.60;;;12.10;99.90;;;;;;5014445;28;20196;-70
2022/05/21 02:58:13;;;;;;;0.80;0.60;;;12.10;99.90;;;;;;5014460;28;20177;-71
2022/05/21 03:00:38;;;;;;;8.10;0.70;;;12.10;99.90;;;;;;5014473;28;20929;-70
2022/05/21 03:03:04;;;;;;;0.90;0.70;;;12.10;99.90;;;;;;5014108;28;20446;-70
2022/05/21 03:05:31;;;;;;;0.70;0.50;;;12.10;99.90;;;;;;5014130;28;20200;-70
2022/05/21 03:07:57;;;;;;;0.80;0.70;;;12.10;99.90;;;;;;5012476;28;20179;-70
2022/05/21 03:10:26;;;;;;;0.80;0.60;;;12.10;99.90;;;;;;5014111;28;20562;-70
2022/05/21 03:12:56;;;;;;;0.70;0.60;;;12.10;99.90;;;;;;5013848;28;20431;-70
2022/05/21 03:15:34;;;;;;;0.80;0.70;;;12.20;99.90;;;;;;5014091;28;20407;-71
2022/05/21 03:18:01;;;;;;;0.70;0.50;;;12.20;99.90;;;;;;5013997;28;20512;-71
2022/05/21 03:20:27;;;;;;;1.83;0.80;;;12.30;99.90;;;;;;5013922;28;20438;-70
2022/05/21 03:22:53;;;;;;;0.70;0.50;;;12.40;99.90;;;;;;5013641;28;20410;-71
2022/05/21 03:25:19;;;;;;;0.70;0.60;;;12.50;99.90;;;;;;5013826;28;20451;-70
2022/05/21 03:27:45;;;;;;;0.80;0.60;;;12.60;99.90;;;;;;5013832;28;20562;-69
2022/05/21 03:30:13;;;;;;;0.70;0.60;;;12.70;99.90;;;;;;5013705;28;20423;-70
2022/05/21 03:32:39;;;;;;;0.73;0.60;;;12.70;99.90;;;;;;5012338;28;20211;-70
2022/05/21 03:35:05;;;;;;;0.80;0.60;;;12.80;99.90;;;;;;5012701;28;20443;-70
2022/05/21 03:37:31;;;;;;;0.70;0.50;;;12.90;99.90;;;;;;5013663;28;20172;-70
2022/05/21 03:39:56;;;;;;;0.70;0.60;;;13.00;99.90;;;;;;5013491;28;20437;-70
2022/05/21 03:42:22;;;;;;;0.70;0.53;;;13.00;99.90;;;;;;5013259;28;20179;-71
2022/05/21 03:44:47;;;;;;;0.70;0.50;;;13.10;99.90;;;;;;5013410;28;20207;-70
2022/05/21 03:47:16;;;;;;;0.70;0.60;;;13.10;99.90;;;;;;5012247;28;20218;-70
2022/05/21 03:49:41;;;;;;;0.70;0.60;;;13.10;99.90;;;;;;5013296;28;20241;-70
2022/05/21 03:52:07;;;;;;;0.70;0.50;;;13.20;99.90;;;;;;5013052;28;20506;-68
2022/05/21 03:54:33;;;;;;;0.70;0.50;;;13.20;99.90;;;;;;5013282;28;20204;-70
2022/05/21 03:56:59;;;;;;;0.80;0.60;;;13.30;99.90;;;;;;5013276;28;20168;-69
2022/05/21 03:59:25;;;;;;;0.70;0.50;;;13.30;99.90;;;;;;5013213;28;20200;-69
2022/05/21 04:01:51;;;;;;;0.70;0.50;;;13.30;99.90;;;;;;5013319;28;20936;-70
2022/05/21 04:04:16;;;;;;;1.00;0.90;;;13.40;99.90;;;;;;5012888;28;20183;-71
2022/05/21 04:06:42;;;;;;;0.70;0.50;;;13.40;99.90;;;;;;5013096;28;20653;-70
2022/05/21 04:09:07;;;;;;;0.80;0.60;;;13.50;99.90;;;;;;5013065;28;20192;-70
2022/05/21 04:11:33;;;;;;;0.70;0.50;;;13.50;99.90;;;;;;5011702;28;20630;-70
2022/05/21 04:13:58;;;;;;;0.70;0.50;;;13.50;99.90;;;;;;5012756;28;20222;-71
2022/05/21 04:16:24;;;;;;;0.80;0.60;;;13.50;99.90;;;;;;5013054;28;20630;-70
2022/05/21 04:18:49;;;;;;;1.47;1.37;;;13.50;99.90;;;;;;5012017;28;20208;-69
2022/05/21 04:21:15;;;;;;;1.00;0.70;;;13.50;99.90;;;;;;5012820;28;20168;-69
2022/05/21 04:23:41;;;;;;;0.70;0.60;;;13.60;99.90;;;;;;5012552;28;20176;-70
2022/05/21 04:26:06;;;;;;;4.73;0.70;;;13.60;99.90;;;;;;5011293;28;20200;-70
2022/05/21 04:28:32;;;;;;;0.80;0.80;;;13.60;99.90;;;;;;5012600;28;20177;-70
2022/05/21 04:30:57;;;;;;;0.80;0.63;;;13.60;99.90;;;;;;5012623;28;20169;-71
2022/05/21 04:33:23;;;;;;;1.30;1.17;;;13.60;99.90;;;;;;5012312;28;20171;-70
2022/05/21 04:38:33;;;;;;;0.70;0.60;;;13.60;99.90;;;;;;5012774;28;20259;-70
2022/05/21 04:40:59;;;;;;;0.70;0.60;;;13.70;99.90;;;;;;5011230;28;20453;-70
2022/05/21 04:43:24;;;;;;;0.80;0.60;;;13.70;99.90;;;;;;5012281;28;20923;-71
2022/05/21 04:45:50;;;;;;;0.80;0.60;;;13.70;99.90;;;;;;5012436;28;20653;-70
2022/05/21 04:48:15;;;;;;;0.70;0.60;;;13.70;99.90;;;;;;5012463;28;20195;-70
2022/05/21 04:50:41;;;;;;;0.70;0.60;;;13.70;99.90;;;;;;5012354;28;20180;-70
2022/05/21 04:53:07;;;;;;;1.87;1.50;;;13.80;99.90;;;;;;5012148;28;20160;-70
2022/05/21 04:55:33;;;;;;;0.70;0.50;;;13.80;99.90;;;;;;5012408;28;20250;-70
2022/05/21 04:57:58;;;;;;;0.77;0.67;;;13.80;99.90;;;;;;5012315;28;20920;-70
2022/05/21 05:00:25;;;;;;;0.70;0.53;;;13.90;99.90;;;;;;5012274;28;20188;-71
2022/05/21 05:02:50;;;;;;;1.47;1.17;;;13.90;99.90;;;;;;5010909;28;20637;-69
2022/05/21 05:05:16;;;;;;;0.70;0.60;;;14.00;99.90;;;;;;5012118;28;20464;-70
2022/05/21 05:07:42;;;;;;;0.90;0.60;;;14.00;99.90;;;;;;5010949;28;20580;-70
2022/05/21 05:10:08;;;;;;;0.80;0.60;;;14.10;99.90;;;;;;5012065;28;20924;-71
2022/05/21 05:12:35;;;;;;;0.70;0.60;;;14.20;99.90;;;;;;5011942;28;20168;-70
2022/05/21 05:15:00;;;;;;;0.70;0.60;;;14.30;99.90;;;;;;5011091;28;20927;-70
2022/05/21 05:17:26;;;;;;;0.90;0.90;;;14.30;99.90;;;;;;5012054;28;20419;-71
2022/05/21 05:19:54;;;;;;;0.70;0.60;;;14.40;99.90;;;;;;5012091;28;20267;-72
2022/05/21 05:22:20;;;;;;;0.70;0.60;;;14.40;99.90;;;;;;5011925;28;20439;-70
2022/05/21 05:24:46;;;;;;;1.27;0.90;;;14.40;99.90;;;;;;5011938;28;20505;-72
2022/05/21 05:27:11;;;;;;;0.70;0.50;;;14.50;99.90;;;;;;5012040;28;20412;-72
2022/05/21 05:29:37;;;;;;;0.80;0.70;;;14.50;99.90;;;;;;5012692;28;20184;-69
2022/05/21 05:32:03;;;;;;;0.70;0.60;;;14.50;99.90;;;;;;5015962;28;20172;-70
2022/05/21 05:34:29;;;;;;;0.80;0.77;;;14.50;99.90;;;;;;5015636;28;20164;-70
2022/05/21 05:36:54;;;;;;;1.03;0.60;;;14.60;99.90;;;;;;5015896;28;20395;-70
2022/05/21 05:39:21;;;;;;;0.90;0.70;;;14.60;99.90;;;;;;5015787;28;20191;-70
2022/05/21 05:41:47;;;;;;;0.70;0.60;;;14.60;99.90;;;;;;5015962;28;20164;-70
2022/05/21 05:44:13;;;;;;;0.87;0.67;;;14.70;99.90;;;;;;5015453;28;20469;-70
2022/05/21 05:46:38;;;;;;;0.80;0.70;;;14.70;99.90;;;;;;5015734;28;20287;-72
2022/05/21 05:49:04;;;;;;;0.70;0.50;;;14.70;99.90;;;;;;5015546;28;20215;-72
2022/05/21 05:51:30;;;;;;;0.70;0.60;;;14.70;99.90;;;;;;5015727;28;20165;-71
2022/05/21 05:53:55;;;;;;;0.80;0.70;;;14.80;99.90;;;;;;5015211;28;20203;-71
2022/05/21 05:56:21;;;;;;;1.10;0.77;;;14.80;99.90;;;;;;5015525;28;20172;-69
2022/05/21 06:01:31;;;;;;;0.70;0.60;;;14.90;99.90;;;;;;5015550;28;20401;-69
2022/05/21 06:03:57;;;;;;;0.87;0.60;;;15.00;99.90;;;;;;5013817;28;20502;-70
2022/05/21 06:06:23;;;;;;;0.80;0.73;;;15.00;99.90;;;;;;5015428;28;20196;-70
2022/05/21 06:08:49;;;;;;;0.70;0.50;;;15.10;99.90;;;;;;5013948;28;20282;-69
2022/05/21 06:11:16;;;;;;;0.80;0.70;;;15.10;99.90;;;;;;5015258;28;20495;-70
2022/05/21 06:13:43;;;;;;;1.00;0.80;;;15.20;99.90;;;;;;5014917;28;20486;-71
2022/05/21 06:16:09;;;;;;;0.80;0.80;;;15.20;99.90;;;;;;5015208;28;20419;-70
2022/05/21 06:18:34;;;;;;;0.83;0.77;;;15.30;99.90;;;;;;5015051;28;20438;-70
2022/05/21 06:21:02;;;;;;;1.17;0.70;;;15.40;99.90;;;;;;5013837;28;20978;-71
2022/05/21 06:23:27;;;;;;;3.00;2.33;;;15.40;99.90;;;;;;5014755;28;20168;-71
2022/05/21 06:25:53;;;;;;;1.07;0.67;;;15.50;99.90;;;;;;5014845;28;20477;-70
2022/05/21 06:28:19;;;;;;;1.37;1.27;;;15.60;99.90;;;;;;5014898;28;20173;-70
2022/05/21 06:30:45;;;;;;;2.20;0.73;;;15.70;99.90;;;;;;5014880;28;20231;-70
2022/05/21 06:33:23;;;;;;;0.80;0.77;;;15.80;99.90;;;;;;5014605;28;20165;-70
2022/05/21 06:36:01;;;;;;;1.07;0.90;;;15.90;99.90;;;;;;5014956;28;20923;-71
2022/05/21 06:38:27;;;;;;;0.73;0.53;;;15.90;99.90;;;;;;5014811;28;20920;-70
2022/05/21 06:40:52;;;;;;;1.10;0.90;;;16.00;99.90;;;;;;5013035;28;20494;-71
2022/05/21 06:43:20;;;;;;;0.77;0.60;;;16.10;99.90;;;;;;5014137;28;20204;-70
2022/05/21 06:45:45;;;;;;;1.10;0.70;;;16.10;99.90;;;;;;5013391;28;20204;-70
2022/05/21 06:48:11;;;;;;;1.00;0.70;;;16.20;99.90;;;;;;5014614;28;20411;-69
2022/05/21 06:50:38;;;;;;;1.33;1.23;;;16.20;99.90;;;;;;5014579;28;20192;-70
2022/05/21 06:53:04;;;;;;;0.80;0.63;;;16.20;99.90;;;;;;5014246;28;20503;-74
2022/05/21 06:55:30;;;;;;;0.80;0.60;;;16.30;99.90;;;;;;5014397;28;20419;-71
2022/05/21 06:57:55;;;;;;;1.00;0.80;;;16.40;99.90;;;;;;5014556;28;20399;-70
2022/05/21 07:00:22;;;;;;;0.90;0.67;;;16.40;99.90;;;;;;5014360;28;20192;-71
2022/05/21 07:02:49;;;;;;;0.80;0.70;;;16.60;99.90;;;;;;5013025;28;20172;-70
2022/05/21 07:08:00;;;;;;;0.77;0.60;;;16.70;99.90;;;;;;5014155;28;20839;-71
2022/05/21 07:10:28;;;;;;;1.00;0.90;;;16.80;99.90;;;;;;5012885;28;20510;-70
2022/05/21 07:12:54;;;;;;;0.80;0.70;;;16.80;99.90;;;;;;5014158;28;20742;-71
2022/05/21 07:15:20;;;;;;;1.00;0.80;;;16.90;99.90;;;;;;5013997;28;20502;-69
2022/05/21 07:17:45;;;;;;;1.30;1.10;;;16.90;99.90;;;;;;5013958;28;20266;-70
2022/05/21 07:20:15;;;;;;;1.23;0.80;;;17.10;99.90;;;;;;5013988;28;20191;-71
2022/05/21 07:22:47;;;;;;;1.13;1.03;;;17.20;99.90;;;;;;5012367;28;20283;-70
2022/05/21 07:25:16;;;;;;;1.90;0.80;;;17.30;99.90;;;;;;5013817;28;20451;-71
2022/05/21 07:27:42;;;;;;;1.90;1.00;;;17.40;99.90;;;;;;5013892;28;20490;-69
2022/05/21 07:30:08;;;;;;;6.73;0.80;;;17.50;99.90;;;;;;5013803;28;21030;-71
2022/05/21 07:32:34;;;;;;;1.10;0.80;;;17.50;99.90;;;;;;5013502;28;20529;-71
2022/05/21 07:35:03;;;;;;;7.73;1.00;;;17.60;99.90;;;;;;5013765;28;20411;-71
2022/05/21 07:37:29;;;;;;;0.80;0.67;;;17.70;99.90;;;;;;5013703;28;20256;-70
2022/05/21 07:39:55;;;;;;;1.30;1.20;;;17.90;99.90;;;;;;5013605;28;20427;-70
2022/05/21 07:42:21;;;;;;;1.20;0.77;;;18.00;99.90;;;;;;5013629;28;20399;-70
2022/05/21 07:44:46;;;;;;;0.80;0.73;;;18.20;99.90;;;;;;5013203;28;20678;-71
2022/05/21 07:47:12;;;;;;;0.80;0.67;;;18.50;99.90;;;;;;5013579;28;20164;-71
2022/05/21 07:49:38;;;;;;;0.80;0.60;;;18.70;99.90;;;;;;5012054;28;20548;-71
2022/05/21 07:52:04;;;;;;;0.80;0.60;;;19.60;99.90;;;;;;5013420;28;20168;-70
2022/05/21 07:54:30;;;;;;;1.17;1.07;;;20.80;99.90;;;;;;5013024;28;20473;-71
2022/05/21 07:56:56;;;;;;;1.20;0.90;;;21.20;99.90;;;;;;5013357;28;20494;-70
2022/05/21 07:59:22;;;;;;;1.10;0.80;;;21.30;99.90;;;;;;5013157;28;20228;-70
2022/05/21 08:01:48;;;;;;;1.00;0.67;;;21.30;99.90;;;;;;5013248;28;20440;-71
2022/05/21 08:04:14;;;;;;;0.90;0.70;;;21.10;99.90;;;;;;5012859;28;20600;-71
2022/05/21 08:06:39;;;;;;;1.33;0.80;;;21.00;99.90;;;;;;5013239;28;20559;-70
2022/05/21 08:09:05;;;;;;;1.00;0.90;;;20.90;99.90;;;;;;5013069;28;20430;-71
2022/05/21 08:11:31;;;;;;;1.30;1.20;;;20.70;99.90;;;;;;5012084;28;20184;-71
2022/05/21 08:13:56;;;;;;;0.90;0.80;;;20.80;99.90;;;;;;5012905;28;20238;-71
2022/05/21 08:16:22;;;;;;;0.80;0.67;;;21.20;99.90;;;;;;5011822;28;20176;-70
2022/05/21 08:18:48;;;;;;;0.90;0.70;;;21.40;99.90;;;;;;5012779;28;20207;-71
2022/05/21 08:21:14;;;;;;;1.40;1.10;;;21.60;99.90;;;;;;5012866;28;20493;-71
2022/05/21 08:27:07;;;;;;;1.00;0.90;;;22.80;99.90;;;;;;5012979;28;20250;-71
2022/05/21 08:29:13;;;;;;;3.90;3.10;;;24.00;99.90;;;;;;5007093;28;21011;-71
2022/05/21 08:31:39;;;;;;;1.10;1.00;;;24.30;99.90;;;;;;5011468;28;20407;-71
2022/05/21 08:34:04;;;;;;;0.90;0.80;;;25.60;99.90;;;;;;5012342;28;20226;-71
2022/05/21 08:36:30;;;;;;;1.10;0.87;;;27.70;99.90;;;;;;5012638;28;20187;-70
2022/05/21 08:38:55;;;;;;;1.10;0.80;;;29.90;99.90;;;;;;5012684;28;20192;-71
2022/05/21 08:41:25;;;;;;;1.40;0.90;;;31.70;99.90;;;;;;5012570;28;20263;-72
2022/05/21 08:44:12;;;;;;;0.90;0.80;;;32.70;99.90;;;;;;5012183;28;20613;-71
2022/05/21 08:47:00;;;;;;;0.90;0.80;;;32.30;99.90;;;;;;5012208;28;20478;-72
2022/05/21 08:49:50;;;;;;;1.03;0.90;;;33.30;99.90;;;;;;5012237;28;20435;-71
2022/05/21 08:52:28;;;;;;;1.30;1.10;;;34.30;99.90;;;;;;5012461;28;20419;-71
2022/05/21 08:54:57;;;;;;;1.00;0.80;;;34.10;99.90;;;;;;5012298;28;20446;-69
2022/05/21 08:57:46;;;;;;;1.10;0.90;;;33.50;99.90;;;;;;5012390;28;20407;-70
2022/05/21 09:00:23;;;;;;;1.63;1.07;;;32.30;93.60;;;;;;5012279;28;20426;-71
2022/05/21 09:02:50;;;;;;;0.90;0.73;;;31.40;94.70;;;;;;5010883;28;20923;-71
2022/05/21 09:05:18;;;;;;;1.63;1.53;;;32.30;99.40;;;;;;5011694;28;20459;-71
2022/05/21 09:08:07;;;;;;;1.90;0.90;;;32.80;98.70;;;;;;5012332;28;20410;-72
2022/05/21 09:10:38;;;;;;;1.00;0.90;;;33.10;99.10;;;;;;5010749;28;20486;-71
2022/05/21 09:13:12;;;;;;;1.10;0.93;;;34.10;99.90;;;;;;5010612;28;20481;-71
2022/05/21 09:18:24;;;;;;;0.90;0.80;;;37.20;88.30;;;;;;5011989;28;20484;-71
2022/05/21 09:21:08;;;;;;;1.30;1.07;;;38.90;76.20;;;;;;5012083;28;20415;-72
2022/05/21 09:23:58;;;;;;;0.90;0.80;;;40.30;75.40;;;;;;5011927;28;20171;-72
2022/05/21 09:26:30;;;;;;;1.20;1.10;;;41.90;72.30;;;;;;5004558;28;20474;-72
2022/05/21 09:29:27;;;;;;;1.30;1.20;;;43.20;61.10;;;;;;5012088;28;20446;-73
2022/05/21 09:31:54;;;;;;;1.30;1.20;;;44.40;54.10;;;;;;5012112;28;20403;-71
2022/05/21 09:34:30;;;;;;;1.30;1.20;;;45.70;50.20;;;;;;5011815;28;20527;-72
2022/05/21 09:36:57;;;;;;;1.20;1.10;;;46.60;46.70;;;;;;5012058;28;20414;-71
2022/05/21 09:39:35;;;;;;;1.40;1.30;;;47.20;46.60;;;;;;5011928;28;20489;-72
2022/05/21 09:45:24;;;;;;;1.10;1.00;;;45.20;45.90;;;;;;5011825;28;20446;-72
2022/05/21 09:48:14;;;;;;;1.10;1.00;;;43.50;45.60;;;;;;5010616;28;20447;-71
2022/05/21 09:50:47;;;;;;;1.60;1.50;;;42.00;39.90;;;;;;5003576;28;20955;-72
2022/05/21 09:53:28;;;;;;;1.30;1.20;;;42.10;41.60;;;;;;5011621;28;20403;-71
2022/05/21 09:56:00;;;;;;;1.33;1.23;;;43.00;39.30;;;;;;5011870;28;20403;-71
2022/05/21 09:58:27;;;;;;;1.40;1.30;;;44.00;37.90;;;;;;5011666;28;20439;-72
2022/05/21 10:00:55;;;;;;;1.50;1.40;;;44.90;36.00;;;;;;5011721;28;20407;-72
2022/05/21 10:03:47;;;;;;;1.10;1.00;;;45.60;36.20;;;;;;5011383;28;20411;-72
2022/05/21 10:06:31;;;;;;;1.27;1.17;;;46.10;37.50;;;;;;5005247;28;20474;-72
2022/05/21 10:12:04;;;;;;;1.10;1.00;;;45.50;38.30;;;;;;5011997;28;20402;-70
2022/05/21 10:14:41;;;;;;;1.00;0.90;;;45.30;39.80;;;;;;5010083;28;20476;-72
2022/05/21 10:17:14;;;;;;;1.57;1.47;;;44.10;40.10;;;;;;5012984;28;20405;-73
2022/05/21 10:19:51;;;;;;;0.93;0.83;;;42.40;39.00;;;;;;5015003;28;20413;-72
2022/05/21 10:22:38;;;;;;;1.10;1.00;;;41.20;40.00;;;;;;5015203;28;20453;-71
2022/05/21 10:25:08;;;;;;;1.20;1.10;;;40.50;41.30;;;;;;5014848;28;20415;-72
2022/05/21 10:28:07;;;;;;;1.10;1.00;;;40.00;40.40;;;;;;5015124;28;20414;-72
2022/05/21 10:30:48;;;;;;;1.10;0.93;;;39.20;41.20;;;;;;5014911;28;20434;-72
2022/05/21 10:33:33;;;;;;;1.10;1.00;;;39.10;42.70;;;;;;5014677;28;20408;-71
2022/05/21 10:36:33;;;;;;;1.27;1.10;;;39.90;43.60;;;;;;5014810;28;20447;-71
2022/05/21 10:39:21;;;;;;;1.30;1.20;;;41.90;43.60;;;;;;5013497;28;20442;-71
2022/05/21 10:42:29;;;;;;;1.10;1.00;;;43.50;40.70;;;;;;5014800;28;20414;-72
2022/05/21 10:45:16;;;;;;;1.20;1.10;;;43.50;40.50;;;;;;5003760;28;20422;-72
2022/05/21 10:47:57;;;;;;;1.10;1.00;;;42.60;40.90;;;;;;5014730;28;20414;-73
2022/05/21 10:50:36;;;;;;;1.10;1.00;;;41.40;41.60;;;;;;5014572;28;20438;-72
2022/05/21 10:53:24;;;;;;;1.93;1.30;;;39.90;42.20;;;;;;5014270;28;20435;-72
2022/05/21 10:56:11;;;;;;;1.10;1.00;;;38.50;41.60;;;;;;5013135;28;21002;-72
2022/05/21 10:58:48;;;;;;;2.20;1.00;;;38.10;42.10;;;;;;5014429;28;20403;-72
2022/05/21 11:01:34;;;;;;;1.07;0.97;;;39.40;43.40;;;;;;5014396;28;20426;-70
2022/05/21 11:04:25;;;;;;;1.00;0.90;;;41.00;43.30;;;;;;5014008;28;20738;-72
2022/05/21 11:07:08;;;;;;;0.97;0.87;;;41.80;41.90;;;;;;5014276;28;20450;-72
2022/05/21 11:09:34;;;;;;;1.17;1.07;;;42.50;41.90;;;;;;5014094;28;20470;-72
2022/05/21 11:12:11;;;;;;;1.40;1.30;;;43.10;39.40;;;;;;5014193;28;20518;-73
2022/05/21 11:14:46;;;;;;;1.27;1.17;;;42.80;36.20;;;;;;5013831;28;20171;-72
2022/05/21 11:17:35;;;;;;;1.20;1.10;;;41.90;37.00;;;;;;5014178;28;20836;-72
2022/05/21 11:20:06;;;;;;;1.20;1.03;;;40.80;38.00;;;;;;5013924;28;20419;-73
2022/05/21 11:22:38;;;;;;;1.10;1.00;;;39.70;38.80;;;;;;5014011;28;20403;-72
2022/05/21 11:25:23;;;;;;;1.10;1.00;;;38.50;39.50;;;;;;5013711;28;20406;-72
2022/05/21 11:28:00;;;;;;;0.93;0.83;;;37.60;40.40;;;;;;5013493;28;20472;-72
2022/05/21 11:30:26;;;;;;;1.40;1.30;;;37.10;41.30;;;;;;5013765;28;20423;-72
2022/05/21 11:38:38;;;;;;;1.00;0.90;;;36.90;40.20;;;;;;5013869;28;20414;-72
2022/05/21 11:47:14;;;;;;;1.07;0.90;;;39.70;39.40;;;;;;5013612;28;20390;-72
2022/05/21 11:50:10;;;;;;;2.90;1.33;;;41.30;37.40;;;;;;5013385;28;20426;-71
2022/05/21 11:52:35;;;;;;;1.40;1.30;;;42.40;35.50;;;;;;5005776;28;20422;-72
2022/05/21 11:55:13;;;;;;;1.13;1.03;;;42.20;35.00;;;;;;5013011;28;20462;-72
2022/05/21 11:57:45;;;;;;;1.17;1.07;;;41.40;35.80;;;;;;5013272;28;20355;-72
2022/05/21 12:00:25;;;;;;;1.00;0.90;;;40.30;35.80;;;;;;5013250;28;20427;-72
2022/05/21 12:02:53;;;;;;;0.90;0.80;;;39.10;36.70;;;;;;5013157;28;20764;-71
2022/05/21 12:05:37;;;;;;;1.67;0.83;;;38.60;37.80;;;;;;5013027;28;20419;-71
2022/05/21 12:08:17;;;;;;;1.00;0.80;;;38.10;38.30;;;;;;5013670;28;20407;-72
2022/05/21 12:10:55;;;;;;;1.07;0.80;;;37.20;37.80;;;;;;5011807;28;20439;-72
2022/05/21 12:13:34;;;;;;;1.00;0.90;;;36.50;38.60;;;;;;5012802;28;20403;-72
2022/05/21 12:16:22;;;;;;;1.00;0.90;;;36.00;39.30;;;;;;5012853;28;20443;-71
2022/05/21 12:18:49;;;;;;;0.90;0.80;;;36.20;39.90;;;;;;5012669;28;20501;-71
2022/05/21 12:21:44;;;;;;;0.90;0.80;;;36.80;39.60;;;;;;5013005;28;20915;-71
2022/05/21 12:24:37;;;;;;;0.90;0.80;;;37.40;39.80;;;;;;5012673;28;20771;-71
2022/05/21 12:27:24;;;;;;;1.20;1.10;;;38.20;40.60;;;;;;5012904;28;20395;-72
2022/05/21 12:29:57;;;;;;;1.10;0.83;;;39.00;40.40;;;;;;5012769;28;20422;-72
2022/05/21 12:32:26;;;;;;;1.20;1.10;;;40.20;39.30;;;;;;5012662;28;20465;-72
2022/05/21 12:35:24;;;;;;;1.23;1.13;;;41.40;38.50;;;;;;5010885;28;20465;-71
2022/05/21 12:38:08;;;;;;;1.20;1.10;;;42.70;38.50;;;;;;5012611;28;20926;-70
2022/05/21 12:40:37;;;;;;;1.40;1.10;;;44.20;38.60;;;;;;5011873;28;20755;-72
2022/05/21 12:43:10;;;;;;;1.10;1.00;;;44.90;37.90;;;;;;5012377;28;20403;-70
2022/05/21 12:45:45;;;;;;;1.13;1.03;;;44.10;37.70;;;;;;5012550;28;20901;-72
2022/05/21 12:48:21;;;;;;;0.90;0.80;;;42.90;37.90;;;;;;5012588;28;20727;-72
2022/05/21 12:50:47;;;;;;;1.30;1.20;;;42.90;39.10;;;;;;5012467;28;20430;-71
2022/05/21 12:53:12;;;;;;;1.03;0.93;;;42.70;38.90;;;;;;5012102;28;20400;-72
2022/05/21 12:55:38;;;;;;;1.00;0.90;;;42.10;38.80;;;;;;5012352;28;20203;-72
2022/05/21 12:58:08;;;;;;;1.10;1.00;;;42.10;38.10;;;;;;5012333;28;20664;-72
2022/05/21 13:00:34;;;;;;;1.10;1.00;;;41.80;36.00;;;;;;5012288;28;20176;-72
2022/05/21 13:03:09;;;;;;;1.00;0.90;;;41.00;36.20;;;;;;5012192;28;20434;-71
2022/05/21 13:05:39;;;;;;;1.00;0.90;;;40.40;37.00;;;;;;5012432;28;20766;-72
2022/05/21 13:08:06;;;;;;;1.10;1.00;;;40.40;37.00;;;;;;5012301;28;20395;-72
2022/05/21 13:10:36;;;;;;;1.53;1.40;;;41.10;37.70;;;;;;5012173;28;20974;-71
2022/05/21 13:13:07;;;;;;;4.23;1.50;;;42.20;37.40;;;;;;5012022;28;20407;-73
2022/05/21 13:15:39;;;;;;;1.60;1.50;;;43.00;36.10;;;;;;5012190;28;20946;-72
2022/05/21 13:18:18;;;;;;;1.00;0.90;;;43.20;34.30;;;;;;5010874;28;20431;-72
2022/05/21 13:21:11;;;;;;;1.20;1.10;;;43.00;33.20;;;;;;5012078;28;20434;-72
2022/05/21 13:24:01;;;;;;;1.20;1.10;;;42.30;32.30;;;;;;5011886;28;20442;-72
2022/05/21 13:26:29;;;;;;;1.53;1.43;;;41.40;31.10;;;;;;5012178;28;20385;-72
2022/05/21 13:29:17;;;;;;;1.10;1.00;;;40.50;33.00;;;;;;5012027;28;20448;-72
2022/05/21 13:31:43;;;;;;;1.40;0.90;;;39.70;35.00;;;;;;5012180;28;20407;-72
2022/05/21 13:34:15;;;;;;;0.90;0.80;;;38.90;36.30;;;;;;5011760;28;20454;-72
2022/05/21 13:36:47;;;;;;;1.60;1.10;;;38.10;37.40;;;;;;5012000;28;20451;-72
2022/05/21 13:39:21;;;;;;;1.40;1.30;;;37.40;38.10;;;;;;5011980;28;20413;-72
2022/05/21 13:41:47;;;;;;;1.17;1.07;;;36.70;38.20;;;;;;5011997;28;20398;-72